createdAt,value
2018-04-08T00:00:39.158Z,9.00
2018-04-08T00:03:07.426Z,8.67
2018-04-08T00:05:35.753Z,9.50
2018-04-08T00:08:04.832Z,9.03
2018-04-08T00:10:33.174Z,9.57
2018-04-08T00:13:01.420Z,8.90
2018-04-08T00:15:30.435Z,9.87
2018-04-08T00:17:58.716Z,9.37
2018-04-08T00:20:26.958Z,8.80
2018-04-08T00:22:55.240Z,9.40
2018-04-08T00:25:23.471Z,8.60
2018-04-08T00:27:51.762Z,9.33
2018-04-08T00:30:20.014Z,13.80
2018-04-08T00:32:48.257Z,10.00
2018-04-08T00:35:17.312Z,9.60
2018-04-08T00:37:45.566Z,10.87
2018-04-08T00:40:13.854Z,8.47
2018-04-08T00:42:42.137Z,9.70
2018-04-08T00:45:10.445Z,8.90
2018-04-08T00:47:38.695Z,7.70
2018-04-08T00:50:06.965Z,8.37
2018-04-08T00:52:35.227Z,7.83
2018-04-08T00:55:03.510Z,7.20
2018-04-08T00:57:32.324Z,8.07
2018-04-08T01:00:01.087Z,7.97
2018-04-08T01:02:29.141Z,7.73
2018-04-08T01:04:57.207Z,7.33
2018-04-08T01:07:25.530Z,6.43
2018-04-08T01:09:53.548Z,6.77
2018-04-08T01:12:21.534Z,8.40
2018-04-08T01:14:49.557Z,7.30
2018-04-08T01:17:17.575Z,8.70
2018-04-08T01:19:45.854Z,6.93
2018-04-08T01:22:14.104Z,6.40
2018-04-08T01:24:42.359Z,6.63
2018-04-08T01:27:11.439Z,6.30
2018-04-08T01:29:40.616Z,6.00
2018-04-08T01:32:08.904Z,6.10
2018-04-08T01:34:37.116Z,6.30
2018-04-08T01:37:05.409Z,8.00
2018-04-08T01:39:33.638Z,6.70
2018-04-08T01:42:01.910Z,6.93
2018-04-08T01:44:30.155Z,7.10
2018-04-08T01:46:59.732Z,6.80
2018-04-08T01:49:27.985Z,6.73
2018-04-08T01:51:56.255Z,6.43
2018-04-08T01:54:24.518Z,6.57
2018-04-08T01:56:55.227Z,6.27
2018-04-08T01:59:24.299Z,8.00
2018-04-08T02:01:52.519Z,5.80
2018-04-08T02:04:21.582Z,6.63
2018-04-08T02:06:49.816Z,5.83
2018-04-08T02:09:18.054Z,6.37
2018-04-08T02:11:47.082Z,7.30
2018-04-08T02:14:15.331Z,6.03
2018-04-08T02:16:44.323Z,6.50
2018-04-08T02:19:13.358Z,6.60
2018-04-08T02:21:41.601Z,5.97
2018-04-08T02:24:09.834Z,6.20
2018-04-08T02:26:38.898Z,7.00
2018-04-08T02:29:07.160Z,6.23
2018-04-08T02:31:35.532Z,7.03
2018-04-08T02:34:03.787Z,5.87
2018-04-08T02:36:32.823Z,6.27
2018-04-08T02:39:01.077Z,6.17
2018-04-08T02:41:29.332Z,6.70
2018-04-08T02:43:57.684Z,6.47
2018-04-08T02:46:25.903Z,7.00
2018-04-08T02:48:54.187Z,6.77
2018-04-08T02:51:23.186Z,6.83
2018-04-08T02:53:51.478Z,6.20
2018-04-08T02:56:19.718Z,5.67
2018-04-08T02:58:47.986Z,6.40
2018-04-08T03:01:16.257Z,6.40
2018-04-08T03:03:44.464Z,7.10
2018-04-08T03:06:13.490Z,7.03
2018-04-08T03:08:41.751Z,7.30
2018-04-08T03:11:10.055Z,5.70
2018-04-08T03:13:38.317Z,6.87
2018-04-08T03:16:06.557Z,6.07
2018-04-08T03:18:35.587Z,7.00
2018-04-08T03:21:03.843Z,6.30
2018-04-08T03:23:32.846Z,6.60
2018-04-08T03:26:01.127Z,6.40
2018-04-08T03:28:30.139Z,6.90
2018-04-08T03:30:59.344Z,7.43
2018-04-08T03:33:27.597Z,5.87
2018-04-08T03:35:55.854Z,5.87
2018-04-08T03:38:24.898Z,5.77
2018-04-08T03:40:53.162Z,8.43
2018-04-08T03:43:21.418Z,6.27
2018-04-08T03:45:49.674Z,6.60
2018-04-08T03:48:19.077Z,6.80
2018-04-08T03:50:48.612Z,7.43
2018-04-08T03:53:16.885Z,7.10
2018-04-08T03:55:45.156Z,6.50
2018-04-08T03:58:13.418Z,6.50
2018-04-08T04:00:42.423Z,6.00
2018-04-08T04:03:11.469Z,6.30
2018-04-08T04:05:39.701Z,6.37
2018-04-08T04:08:07.979Z,6.17
2018-04-08T04:10:37.020Z,7.73
2018-04-08T04:13:05.258Z,9.47
2018-04-08T04:15:34.252Z,7.57
2018-04-08T04:18:04.117Z,9.27
2018-04-08T04:20:44.217Z,7.80
2018-04-08T04:23:25.232Z,7.90
2018-04-08T04:26:00.380Z,8.43
2018-04-08T04:28:28.629Z,6.73
2018-04-08T04:30:56.879Z,6.63
2018-04-08T04:33:25.898Z,7.90
2018-04-08T04:35:54.145Z,6.80
2018-04-08T04:38:22.388Z,6.67
2018-04-08T04:40:50.836Z,6.80
2018-04-08T04:43:20.166Z,6.13
2018-04-08T04:45:48.414Z,6.80
2018-04-08T04:48:16.676Z,6.40
2018-04-08T04:50:44.935Z,6.90
2018-04-08T04:53:13.981Z,7.60
2018-04-08T04:55:42.234Z,7.83
2018-04-08T04:58:10.498Z,6.90
2018-04-08T05:00:38.766Z,6.90
2018-04-08T05:03:08.601Z,8.10
2018-04-08T05:05:36.854Z,6.53
2018-04-08T05:08:05.847Z,6.80
2018-04-08T05:10:34.878Z,8.20
2018-04-08T05:13:03.131Z,7.10
2018-04-08T05:15:32.192Z,6.53
2018-04-08T05:18:00.434Z,7.53
2018-04-08T05:20:28.692Z,8.00
2018-04-08T05:22:56.954Z,7.10
2018-04-08T05:25:25.291Z,6.80
2018-04-08T05:27:53.545Z,6.90
2018-04-08T05:30:21.833Z,7.53
2018-04-08T05:32:50.116Z,6.97
2018-04-08T05:35:18.351Z,6.83
2018-04-08T05:37:46.620Z,6.03
2018-04-08T05:40:15.801Z,5.93
2018-04-08T05:42:44.061Z,7.10
2018-04-08T05:45:12.376Z,7.33
2018-04-08T05:47:41.421Z,7.90
2018-04-08T05:50:09.737Z,7.80
2018-04-08T05:52:37.966Z,7.30
2018-04-08T05:55:06.295Z,7.57
2018-04-08T05:57:34.522Z,6.93
2018-04-08T06:00:02.849Z,6.53
2018-04-08T06:02:32.233Z,7.60
2018-04-08T06:05:00.541Z,6.90
2018-04-08T06:07:28.808Z,6.77
2018-04-08T06:09:57.093Z,7.07
2018-04-08T06:12:26.192Z,6.90
2018-04-08T06:14:55.211Z,6.43
2018-04-08T06:17:23.467Z,8.07
2018-04-08T06:19:52.533Z,6.50
2018-04-08T06:22:20.746Z,7.33
2018-04-08T06:24:49.055Z,7.37
2018-04-08T06:27:17.321Z,6.70
2018-04-08T06:29:45.593Z,7.03
2018-04-08T06:32:13.981Z,6.20
2018-04-08T06:34:42.230Z,6.00
2018-04-08T06:37:11.285Z,6.60
2018-04-08T06:39:39.618Z,7.13
2018-04-08T06:42:07.891Z,6.97
2018-04-08T06:44:36.930Z,7.83
2018-04-08T06:47:05.186Z,8.50
2018-04-08T06:49:33.464Z,8.57
2018-04-08T06:52:01.756Z,7.37
2018-04-08T06:54:30.022Z,8.07
2018-04-08T06:56:58.309Z,8.43
2018-04-08T06:59:26.577Z,7.60
2018-04-08T07:01:55.719Z,8.00
2018-04-08T07:04:23.965Z,7.47
2018-04-08T07:06:54.981Z,7.60
2018-04-08T07:09:23.607Z,7.67
2018-04-08T07:11:51.885Z,8.13
2018-04-08T07:14:20.125Z,8.27
2018-04-08T07:16:48.519Z,7.30
2018-04-08T07:19:16.822Z,8.03
2018-04-08T07:21:46.237Z,7.30
2018-04-08T07:24:14.507Z,8.30
2018-04-08T07:26:44.335Z,8.20
2018-04-08T07:29:13.366Z,7.80
2018-04-08T07:31:41.623Z,6.47
2018-04-08T07:34:10.730Z,8.10
2018-04-08T07:36:39.019Z,7.60
2018-04-08T07:39:07.334Z,7.80
2018-04-08T07:41:35.573Z,8.73
2018-04-08T07:44:04.932Z,7.30
2018-04-08T07:46:35.690Z,7.70
2018-04-08T07:49:04.314Z,7.40
2018-04-08T07:51:32.626Z,8.40
2018-04-08T07:54:01.312Z,7.67
2018-04-08T07:56:29.653Z,7.77
2018-04-08T07:58:57.911Z,8.43
2018-04-08T08:01:26.781Z,7.43
2018-04-08T08:03:55.058Z,8.23
2018-04-08T08:06:24.110Z,7.83
2018-04-08T08:08:54.045Z,8.00
2018-04-08T08:11:23.081Z,7.33
2018-04-08T08:13:51.388Z,7.53
2018-04-08T08:16:20.117Z,6.90
2018-04-08T08:18:49.551Z,6.87
2018-04-08T08:21:18.596Z,7.60
2018-04-08T08:23:48.034Z,6.73
2018-04-08T08:26:16.407Z,7.60
2018-04-08T08:28:44.652Z,7.23
2018-04-08T08:31:12.985Z,6.67
2018-04-08T08:33:42.867Z,6.87
2018-04-08T08:36:11.217Z,6.87
2018-04-08T08:38:39.511Z,6.63
2018-04-08T08:41:07.865Z,6.77
2018-04-08T08:43:36.136Z,7.17
2018-04-08T08:46:04.417Z,7.50
2018-04-08T08:48:33.264Z,6.97
2018-04-08T08:51:02.386Z,6.53
2018-04-08T08:53:31.573Z,7.43
2018-04-08T08:56:03.286Z,7.40
2018-04-08T08:58:33.759Z,8.40
2018-04-08T09:01:02.102Z,7.90
2018-04-08T09:03:30.745Z,7.70
2018-04-08T09:05:59.601Z,6.80
2018-04-08T09:08:28.198Z,6.90
2018-04-08T09:10:57.273Z,8.40
2018-04-08T09:13:25.506Z,7.70
2018-04-08T09:15:53.786Z,6.30
2018-04-08T09:18:22.048Z,5.70
2018-04-08T09:21:10.308Z,6.27
2018-04-08T09:23:39.358Z,5.47
2018-04-08T09:26:09.547Z,5.93
2018-04-08T09:28:38.518Z,5.57
2018-04-08T09:31:06.793Z,5.60
2018-04-08T09:33:35.051Z,5.20
2018-04-08T09:36:04.974Z,5.83
2018-04-08T09:38:34.898Z,5.60
2018-04-08T09:41:04.183Z,5.00
2018-04-08T09:43:34.168Z,5.60
2018-04-08T09:46:02.438Z,4.80
2018-04-08T09:48:31.046Z,3.50
2018-04-08T09:50:59.314Z,3.13
2018-04-08T09:53:27.556Z,3.47
2018-04-08T09:55:55.937Z,3.40
2018-04-08T09:58:25.583Z,3.37
2018-04-08T10:04:00.419Z,4.20
2018-04-08T10:06:28.715Z,3.23
2018-04-08T10:08:58.486Z,3.93
2018-04-08T10:11:26.750Z,4.20
2018-04-08T10:13:55.682Z,3.87
2018-04-08T10:16:23.960Z,4.10
2018-04-08T10:18:52.334Z,3.93
2018-04-08T10:21:21.669Z,6.40
2018-04-08T10:23:52.106Z,3.80
2018-04-08T10:26:22.926Z,4.00
2018-04-08T10:28:52.076Z,3.40
2018-04-08T10:31:20.979Z,4.10
2018-04-08T10:33:49.339Z,4.90
2018-04-08T10:36:17.603Z,3.80
2018-04-08T10:38:47.565Z,4.27
2018-04-08T10:41:16.606Z,3.30
2018-04-08T10:43:44.957Z,4.23
2018-04-08T10:46:14.646Z,3.17
2018-04-08T10:48:43.827Z,3.70
2018-04-08T10:51:12.111Z,4.07
2018-04-08T10:53:40.430Z,4.03
2018-04-08T10:56:09.478Z,2.47
2018-04-08T10:58:37.792Z,3.47
2018-04-08T11:01:06.072Z,3.27
2018-04-08T11:03:35.592Z,3.03
2018-04-08T11:06:05.849Z,3.70
2018-04-08T11:08:35.637Z,3.90
2018-04-08T11:11:05.172Z,3.53
2018-04-08T11:13:36.674Z,3.27
2018-04-08T11:16:04.970Z,3.80
2018-04-08T11:18:33.203Z,3.20
2018-04-08T11:21:01.479Z,3.10
2018-04-08T11:23:30.830Z,3.03
2018-04-08T11:25:59.111Z,4.40
2018-04-08T11:28:30.135Z,3.70
2018-04-08T11:30:59.360Z,3.87
2018-04-08T11:33:30.622Z,3.70
2018-04-08T11:35:59.668Z,3.80
2018-04-08T11:38:27.916Z,2.60
2018-04-08T11:40:56.241Z,3.63
2018-04-08T11:43:25.409Z,2.87
2018-04-08T11:45:53.679Z,2.90
2018-04-08T11:48:22.306Z,2.80
2018-04-08T11:50:51.454Z,3.90
2018-04-08T11:53:20.669Z,3.63
2018-04-08T11:55:48.954Z,3.20
2018-04-08T11:58:17.577Z,3.20
2018-04-08T12:00:46.599Z,3.83
2018-04-08T12:03:15.068Z,3.50
2018-04-08T12:05:44.231Z,2.37
2018-04-08T12:08:13.300Z,3.37
2018-04-08T12:10:43.317Z,3.30
2018-04-08T12:13:12.540Z,3.90
2018-04-08T12:15:40.778Z,4.87
2018-04-08T12:18:09.235Z,3.27
2018-04-08T12:20:39.084Z,4.23
2018-04-08T12:23:08.199Z,3.33
2018-04-08T12:25:37.272Z,2.63
2018-04-08T12:28:05.566Z,3.27
2018-04-08T12:30:33.950Z,4.30
2018-04-08T12:33:02.566Z,3.43
2018-04-08T12:35:32.574Z,2.97
2018-04-08T12:38:03.018Z,3.10
2018-04-08T12:40:32.803Z,2.60
2018-04-08T12:43:02.054Z,2.97
2018-04-08T12:45:30.459Z,2.97
2018-04-08T12:48:00.573Z,3.53
2018-04-08T12:50:29.229Z,3.07
2018-04-08T12:52:59.144Z,2.63
2018-04-08T12:55:28.189Z,2.97
2018-04-08T12:57:56.457Z,3.20
2018-04-08T13:00:26.498Z,3.97
2018-04-08T13:02:56.123Z,3.50
2018-04-08T13:05:25.470Z,3.07
2018-04-08T13:07:55.194Z,2.83
2018-04-08T13:10:25.155Z,4.00
2018-04-08T13:12:53.407Z,3.20
2018-04-08T13:15:23.246Z,3.20
2018-04-08T13:17:51.585Z,2.80
2018-04-08T13:20:19.850Z,4.13
2018-04-08T13:22:48.866Z,3.20
2018-04-08T13:25:17.095Z,4.57
2018-04-08T13:27:46.139Z,2.30
2018-04-08T13:30:17.015Z,4.03
2018-04-08T13:32:47.651Z,5.03
2018-04-08T13:35:16.672Z,6.07
2018-04-08T13:37:45.387Z,3.53
2018-04-08T13:40:15.078Z,3.50
2018-04-08T13:42:43.413Z,3.80
2018-04-08T13:45:13.522Z,5.10
2018-04-08T13:47:42.571Z,3.53
2018-04-08T13:50:13.913Z,3.60
2018-04-08T13:52:43.075Z,4.40
2018-04-08T13:55:12.997Z,3.93
2018-04-08T13:57:41.908Z,3.40
2018-04-08T14:00:11.394Z,3.97
2018-04-08T14:02:41.203Z,3.40
2018-04-08T14:05:09.483Z,4.10
2018-04-08T14:07:38.798Z,8.90
2018-04-08T14:10:08.178Z,10.50
2018-04-08T14:12:37.267Z,9.90
2018-04-08T14:15:06.078Z,9.30
2018-04-08T14:17:37.012Z,9.83
2018-04-08T14:20:07.476Z,9.73
2018-04-08T14:22:39.543Z,9.30
2018-04-08T14:25:08.327Z,9.10
2018-04-08T14:27:36.687Z,7.37
2018-04-08T14:30:05.937Z,10.07
2018-04-08T14:32:35.214Z,8.20
2018-04-08T14:35:03.538Z,9.40
2018-04-08T14:37:34.175Z,10.03
2018-04-08T14:40:03.270Z,9.17
2018-04-08T14:42:32.399Z,9.00
2018-04-08T14:45:01.652Z,10.07
2018-04-08T14:47:30.144Z,9.43
2018-04-08T14:49:59.778Z,9.23
2018-04-08T14:52:29.684Z,8.87
2018-04-08T14:54:57.996Z,10.30
2018-04-08T14:57:26.692Z,11.40
2018-04-08T14:59:55.750Z,10.73
2018-04-08T15:02:27.184Z,9.87
2018-04-08T15:04:57.516Z,8.90
2018-04-08T15:07:28.778Z,10.23
2018-04-08T15:12:32.970Z,10.43
2018-04-08T15:15:01.802Z,9.17
2018-04-08T15:17:30.076Z,9.70
2018-04-08T15:20:01.104Z,9.77
2018-04-08T15:22:32.945Z,10.20
2018-04-08T15:25:02.272Z,9.93
2018-04-08T15:27:32.758Z,9.63
2018-04-08T15:30:02.792Z,10.60
2018-04-08T15:32:31.085Z,10.73
2018-04-08T15:35:00.312Z,10.10
2018-04-08T15:37:30.084Z,9.73
2018-04-08T15:40:00.804Z,10.00
2018-04-08T15:42:30.120Z,11.17
2018-04-08T15:45:00.607Z,10.80
2018-04-08T15:47:28.854Z,9.53
2018-04-08T15:49:57.990Z,11.60
2018-04-08T15:52:31.117Z,12.13
2018-04-08T15:55:03.174Z,10.60
2018-04-08T15:57:34.856Z,11.20
2018-04-08T16:00:03.155Z,9.70
2018-04-08T16:02:33.500Z,9.40
2018-04-08T16:05:05.135Z,10.30
2018-04-08T16:07:35.743Z,9.40
2018-04-08T16:10:09.817Z,10.67
2018-04-08T16:12:45.422Z,11.00
2018-04-08T16:15:15.345Z,9.93
2018-04-08T16:17:47.951Z,9.50
2018-04-08T16:20:18.775Z,8.87
2018-04-08T16:22:48.098Z,10.30
2018-04-08T16:25:19.569Z,8.90
2018-04-08T16:27:52.993Z,9.70
2018-04-08T16:30:25.703Z,9.30
2018-04-08T16:32:56.420Z,10.50
2018-04-08T16:35:27.250Z,9.80
2018-04-08T16:37:59.777Z,8.43
2018-04-08T16:40:30.662Z,9.07
2018-04-08T16:43:01.907Z,9.00
2018-04-08T16:45:32.020Z,9.13
2018-04-08T16:48:01.414Z,8.30
2018-04-08T16:50:30.051Z,9.17
2018-04-08T16:53:03.424Z,9.40
2018-04-08T16:55:35.807Z,8.47
2018-04-08T16:58:09.356Z,8.77
2018-04-08T17:00:38.641Z,7.27
2018-04-08T17:03:09.388Z,9.03
2018-04-08T17:05:37.753Z,10.27
2018-04-08T17:08:08.483Z,7.07
2018-04-08T17:10:38.184Z,9.27
2018-04-08T17:13:08.409Z,9.60
2018-04-08T17:15:36.647Z,9.50
2018-04-08T17:18:06.015Z,9.30
2018-04-08T17:20:35.865Z,9.20
2018-04-08T17:23:04.630Z,10.60
2018-04-08T17:25:33.577Z,8.77
2018-04-08T17:28:01.864Z,9.90
2018-04-08T17:30:30.149Z,9.50
2018-04-08T17:32:58.453Z,8.87
2018-04-08T17:35:26.716Z,8.60
2018-04-08T17:37:56.449Z,8.70
2018-04-08T17:40:26.654Z,9.53
2018-04-08T17:42:57.475Z,11.80
2018-04-08T17:45:29.438Z,10.77
2018-04-08T17:47:58.879Z,10.70
2018-04-08T17:50:27.130Z,10.50
2018-04-08T17:52:56.249Z,10.40
2018-04-08T17:55:25.336Z,9.97
2018-04-08T17:57:57.004Z,10.13
2018-04-08T18:00:26.595Z,9.10
2018-04-08T18:02:55.701Z,9.10
2018-04-08T18:05:25.498Z,10.90
2018-04-08T18:07:54.725Z,9.50
2018-04-08T18:10:24.388Z,9.40
2018-04-08T18:12:52.714Z,9.47
2018-04-08T18:15:21.359Z,9.67
2018-04-08T18:17:49.663Z,12.17
2018-04-08T18:20:20.873Z,9.10
2018-04-08T18:22:49.269Z,8.00
2018-04-08T18:25:19.100Z,7.77
2018-04-08T18:27:48.216Z,6.23
2018-04-08T18:30:17.435Z,8.03
2018-04-08T18:32:46.822Z,7.93
2018-04-08T18:35:16.747Z,7.40
2018-04-08T18:37:46.778Z,7.60
2018-04-08T18:40:16.634Z,5.47
2018-04-08T18:42:44.914Z,6.47
2018-04-08T18:45:14.838Z,5.60
2018-04-08T18:47:44.118Z,5.43
2018-04-08T18:50:12.753Z,5.43
2018-04-08T18:52:42.211Z,6.00
2018-04-08T18:55:10.578Z,6.53
2018-04-08T18:57:41.215Z,7.73
2018-04-08T19:00:10.754Z,5.10
2018-04-08T19:02:39.988Z,5.40
2018-04-08T19:05:09.437Z,5.70
2018-04-08T19:07:38.757Z,5.77
2018-04-08T19:10:08.064Z,5.60
2018-04-08T19:12:37.847Z,4.27
2018-04-08T19:15:11.981Z,5.40
2018-04-08T19:17:46.694Z,5.63
2018-04-08T19:20:15.385Z,4.77
2018-04-08T19:22:45.707Z,4.30
2018-04-08T19:25:14.781Z,5.17
2018-04-08T19:27:43.394Z,4.83
2018-04-08T19:30:17.461Z,5.07
2018-04-08T19:32:46.501Z,4.50
2018-04-08T19:35:14.876Z,3.93
2018-04-08T19:37:43.148Z,6.27
2018-04-08T19:40:11.949Z,5.67
2018-04-08T19:42:40.258Z,5.03
2018-04-08T19:45:08.715Z,5.43
2018-04-08T19:47:36.982Z,5.17
2018-04-08T19:50:05.303Z,4.53
2018-04-08T19:52:35.198Z,5.37
2018-04-08T19:55:04.636Z,5.70
2018-04-08T19:57:33.114Z,5.80
2018-04-08T20:00:01.466Z,4.50
2018-04-08T20:02:29.788Z,4.40
2018-04-08T20:04:58.042Z,4.97
2018-04-08T20:07:27.156Z,5.80
2018-04-08T20:09:55.456Z,4.07
2018-04-08T20:12:24.110Z,4.77
2018-04-08T20:14:53.145Z,4.07
2018-04-08T20:17:21.906Z,4.63
2018-04-08T20:19:52.389Z,5.00
2018-04-08T20:22:21.727Z,9.23
2018-04-08T20:24:50.229Z,4.93
2018-04-08T20:27:18.977Z,4.50
2018-04-08T20:29:48.129Z,4.83
2018-04-08T20:32:18.449Z,6.00
2018-04-08T20:34:46.765Z,4.80
2018-04-08T20:37:15.847Z,5.80
2018-04-08T20:39:46.561Z,5.30
2018-04-08T20:42:14.877Z,5.67
2018-04-08T20:44:43.207Z,6.30
2018-04-08T20:47:11.845Z,4.47
2018-04-08T20:49:40.915Z,5.13
2018-04-08T20:52:09.509Z,5.60
2018-04-08T20:54:37.810Z,5.37
2018-04-08T20:57:07.038Z,4.27
2018-04-08T20:59:35.278Z,5.17
2018-04-08T21:02:04.784Z,4.53
2018-04-08T21:04:33.301Z,4.83
2018-04-08T21:07:01.565Z,5.00
2018-04-08T21:09:31.051Z,4.80
2018-04-08T21:12:00.195Z,5.67
2018-04-08T21:14:28.557Z,5.57
2018-04-08T21:16:57.591Z,5.60
2018-04-08T21:19:25.882Z,5.07
2018-04-08T21:21:55.152Z,5.93
2018-04-08T21:24:23.491Z,4.93
2018-04-08T21:26:51.756Z,5.67
2018-04-08T21:29:23.468Z,5.10
2018-04-08T21:31:52.089Z,6.13
2018-04-08T21:34:20.356Z,5.60
2018-04-08T21:36:49.024Z,5.90
2018-04-08T21:39:17.635Z,5.87
2018-04-08T21:41:47.399Z,5.80
2018-04-08T21:44:15.680Z,4.87
2018-04-08T21:46:44.007Z,5.30
2018-04-08T21:49:14.659Z,5.77
2018-04-08T21:51:44.404Z,4.63
2018-04-08T21:54:13.096Z,5.30
2018-04-08T21:56:41.373Z,5.50
2018-04-08T21:59:09.646Z,5.40
2018-04-08T22:01:39.284Z,5.03
2018-04-08T22:04:21.966Z,5.40
2018-04-08T22:06:50.254Z,5.57
2018-04-08T22:09:18.542Z,6.13
2018-04-08T22:11:47.159Z,5.57
2018-04-08T22:14:15.420Z,5.43
2018-04-08T22:16:44.361Z,5.03
2018-04-08T22:19:13.401Z,4.90
2018-04-08T22:21:41.663Z,5.20
2018-04-08T22:24:09.964Z,4.97
2018-04-08T22:26:39.021Z,6.23
2018-04-08T22:29:07.347Z,5.33
2018-04-08T22:31:35.646Z,5.00
2018-04-08T22:34:04.734Z,5.47
2018-04-08T22:36:33.788Z,5.33
2018-04-08T22:39:02.863Z,5.70
2018-04-08T22:41:31.725Z,6.30
2018-04-08T22:44:00.931Z,5.13
2018-04-08T22:46:29.761Z,5.40
2018-04-08T22:48:58.015Z,5.47
2018-04-08T22:51:26.292Z,5.80
2018-04-08T22:53:55.465Z,5.90
2018-04-08T22:56:23.746Z,4.60
2018-04-08T22:58:52.034Z,6.20
2018-04-08T23:01:21.119Z,5.67
2018-04-08T23:03:50.162Z,6.00
2018-04-08T23:06:18.885Z,5.80
2018-04-08T23:08:47.177Z,5.47
2018-04-08T23:11:16.178Z,6.00
2018-04-08T23:13:45.259Z,5.53
2018-04-08T23:16:13.501Z,6.00
2018-04-08T23:18:41.784Z,6.63
2018-04-08T23:21:10.040Z,6.73
2018-04-08T23:23:38.323Z,5.37
2018-04-08T23:26:07.515Z,6.27
2018-04-08T23:28:35.836Z,6.20
2018-04-08T23:31:04.120Z,5.93
2018-04-08T23:33:32.350Z,5.67
2018-04-08T23:36:00.650Z,5.93
2018-04-08T23:38:28.926Z,5.57
2018-04-08T23:40:57.208Z,6.20
2018-04-08T23:43:25.495Z,6.20
2018-04-08T23:45:53.740Z,6.97
2018-04-08T23:48:21.992Z,6.17
2018-04-08T23:50:50.252Z,6.20
2018-04-08T23:53:18.526Z,6.47
2018-04-08T23:55:46.757Z,6.83
2018-04-08T23:58:15.696Z,5.73
